2026/07/31

Sensor Date Temp./Hum.
h4-hermonville 31-07-2026 - 23:58 23.5°C / 61.5%
h2-hermonville 31-07-2026 - 23:54 24.7°C / 59%
h1-hermonville 31-07-2026 - 23:54 21.3°C / 70%
h3-hermonville 31-07-2026 - 23:50 22.6°C / 65%
h4-hermonville 31-07-2026 - 23:48 23.4°C / 61.5%
h2-hermonville 31-07-2026 - 23:44 24.7°C / 59%
h1-hermonville 31-07-2026 - 23:44 21.5°C / 70%
h3-hermonville 31-07-2026 - 23:40 22.8°C / 65%
h4-hermonville 31-07-2026 - 23:38 23.6°C / 61.5%
h2-hermonville 31-07-2026 - 23:34 24.7°C / 59%
h1-hermonville 31-07-2026 - 23:34 21.6°C / 69.5%
h3-hermonville 31-07-2026 - 23:30 22.9°C / 64.5%
h4-hermonville 31-07-2026 - 23:28 23.7°C / 61%
h2-hermonville 31-07-2026 - 23:24 25°C / 58.5%
h1-hermonville 31-07-2026 - 23:24 21.9°C / 69%
h3-hermonville 31-07-2026 - 23:20 23°C / 64.5%
h4-hermonville 31-07-2026 - 23:18 23.8°C / 60.5%
h2-hermonville 31-07-2026 - 23:14 25°C / 58%
h1-hermonville 31-07-2026 - 23:14 22.1°C / 68.5%
h3-hermonville 31-07-2026 - 23:10 23.2°C / 63.5%
h4-hermonville 31-07-2026 - 23:08 24°C / 60%
h1-hermonville 31-07-2026 - 23:04 22.3°C / 67.5%
h3-hermonville 31-07-2026 - 23:00 23.4°C / 62.5%
h4-hermonville 31-07-2026 - 22:58 24°C / 60%
h2-hermonville 31-07-2026 - 22:54 25.3°C / 56%
h1-hermonville 31-07-2026 - 22:54 22.6°C / 66%
h3-hermonville 31-07-2026 - 22:50 23.6°C / 61.5%
h2-hermonville 31-07-2026 - 22:44 25.2°C / 55.5%
h1-hermonville 31-07-2026 - 22:44 23°C / 64%
h3-hermonville 31-07-2026 - 22:40 23.8°C / 60%
h4-hermonville 31-07-2026 - 22:38 24.4°C / 56.5%
h2-hermonville 31-07-2026 - 22:34 25.4°C / 54%
h1-hermonville 31-07-2026 - 22:34 23.3°C / 61%
h3-hermonville 31-07-2026 - 22:30 24.2°C / 57.5%
h4-hermonville 31-07-2026 - 22:28 24.5°C / 54.5%
h2-hermonville 31-07-2026 - 22:24 25.6°C / 52.5%
h1-hermonville 31-07-2026 - 22:24 23.7°C / 58%
h3-hermonville 31-07-2026 - 22:20 24.5°C / 55%
h4-hermonville 31-07-2026 - 22:18 24.7°C / 53%
h2-hermonville 31-07-2026 - 22:14 25.8°C / 51.5%
h4-hermonville 31-07-2026 - 22:08 24.9°C / 52%
h1-hermonville 31-07-2026 - 22:04 24.4°C / 53.5%
h3-hermonville 31-07-2026 - 22:00 25°C / 50.5%
h4-hermonville 31-07-2026 - 21:58 25°C / 50%
h2-hermonville 31-07-2026 - 21:54 26.2°C / 49%
h1-hermonville 31-07-2026 - 21:54 24.8°C / 51.5%
h3-hermonville 31-07-2026 - 21:50 25.1°C / 50%
h4-hermonville 31-07-2026 - 21:48 25°C / 50%
h1-hermonville 31-07-2026 - 21:44 24.8°C / 51%
h3-hermonville 31-07-2026 - 21:40 25.3°C / 49.5%
h4-hermonville 31-07-2026 - 21:38 25.2°C / 49.5%
h2-hermonville 31-07-2026 - 21:34 26.4°C / 48.5%
h1-hermonville 31-07-2026 - 21:34 24.9°C / 50.5%
h3-hermonville 31-07-2026 - 21:30 25.4°C / 49%
h4-hermonville 31-07-2026 - 21:28 25.4°C / 49%
h2-hermonville 31-07-2026 - 21:24 26.4°C / 48%
h1-hermonville 31-07-2026 - 21:24 25.2°C / 50%
h3-hermonville 31-07-2026 - 21:20 25.6°C / 48.5%
h4-hermonville 31-07-2026 - 21:18 25.4°C / 48.5%
h2-hermonville 31-07-2026 - 21:14 26.5°C / 48%
h1-hermonville 31-07-2026 - 21:14 25.3°C / 50%
h3-hermonville 31-07-2026 - 21:10 25.9°C / 48%
h4-hermonville 31-07-2026 - 21:08 25.6°C / 48%
h2-hermonville 31-07-2026 - 21:04 26.6°C / 48%
h1-hermonville 31-07-2026 - 21:04 25.8°C / 48.5%
h3-hermonville 31-07-2026 - 21:00 26.1°C / 47%
h4-hermonville 31-07-2026 - 20:58 25.9°C / 47.5%
h2-hermonville 31-07-2026 - 20:54 26.7°C / 47%
h1-hermonville 31-07-2026 - 20:54 25.9°C / 48%
h3-hermonville 31-07-2026 - 20:50 26.2°C / 46.5%
h4-hermonville 31-07-2026 - 20:48 26°C / 47%
h2-hermonville 31-07-2026 - 20:44 26.8°C / 47.5%
h1-hermonville 31-07-2026 - 20:44 26.1°C / 47%
h3-hermonville 31-07-2026 - 20:40 26.4°C / 46.5%
h4-hermonville 31-07-2026 - 20:38 26.2°C / 47%
h2-hermonville 31-07-2026 - 20:34 26.9°C / 47.5%
h1-hermonville 31-07-2026 - 20:34 26.3°C / 47.5%
h3-hermonville 31-07-2026 - 20:30 26.6°C / 46.5%
h4-hermonville 31-07-2026 - 20:28 26.2°C / 47%
h2-hermonville 31-07-2026 - 20:24 27.2°C / 47%
h1-hermonville 31-07-2026 - 20:24 26.4°C / 47%
h3-hermonville 31-07-2026 - 20:20 26.6°C / 46%
h4-hermonville 31-07-2026 - 20:18 26.4°C / 47%
h2-hermonville 31-07-2026 - 20:14 27.3°C / 47%
h1-hermonville 31-07-2026 - 20:14 26.5°C / 47.5%
h3-hermonville 31-07-2026 - 20:10 26.8°C / 46%
h4-hermonville 31-07-2026 - 20:08 26.4°C / 47%
h2-hermonville 31-07-2026 - 20:04 28.3°C / 44.5%
h1-hermonville 31-07-2026 - 20:04 26.6°C / 47.5%
h2-hermonville 31-07-2026 - 19:54 27.9°C / 45.5%
h1-hermonville 31-07-2026 - 19:54 26.5°C / 47%
h3-hermonville 31-07-2026 - 19:50 26.7°C / 46.5%
h4-hermonville 31-07-2026 - 19:48 26.4°C / 47.5%
h2-hermonville 31-07-2026 - 19:44 27.7°C / 46%
h1-hermonville 31-07-2026 - 19:44 26.5°C / 47.5%
h3-hermonville 31-07-2026 - 19:40 26.7°C / 46.5%
h4-hermonville 31-07-2026 - 19:38 26.4°C / 47%
h2-hermonville 31-07-2026 - 19:34 27.2°C / 47%
h1-hermonville 31-07-2026 - 19:34 26.5°C / 47.5%
h3-hermonville 31-07-2026 - 19:30 26.8°C / 46%
h4-hermonville 31-07-2026 - 19:28 26.6°C / 47%
h2-hermonville 31-07-2026 - 19:24 27.2°C / 47.5%
h1-hermonville 31-07-2026 - 19:24 26.7°C / 47%
h3-hermonville 31-07-2026 - 19:20 27.1°C / 46.5%
h4-hermonville 31-07-2026 - 19:18 26.6°C / 47%
h2-hermonville 31-07-2026 - 19:14 27.7°C / 46%
h1-hermonville 31-07-2026 - 19:14 26.7°C / 47%
h4-hermonville 31-07-2026 - 19:08 26.5°C / 47%
h2-hermonville 31-07-2026 - 19:04 28.5°C / 44.5%
h1-hermonville 31-07-2026 - 19:04 26.7°C / 47%
h3-hermonville 31-07-2026 - 19:00 27.1°C / 46%
h4-hermonville 31-07-2026 - 18:58 26.6°C / 46.5%
h2-hermonville 31-07-2026 - 18:54 28.1°C / 45%
h1-hermonville 31-07-2026 - 18:54 26.7°C / 46.5%
h3-hermonville 31-07-2026 - 18:50 27°C / 45%
h4-hermonville 31-07-2026 - 18:48 26.6°C / 46%
h2-hermonville 31-07-2026 - 18:44 28.8°C / 43%
h1-hermonville 31-07-2026 - 18:44 26.8°C / 46%
h3-hermonville 31-07-2026 - 18:40 27.3°C / 44.5%
h4-hermonville 31-07-2026 - 18:38 26.9°C / 45%
h2-hermonville 31-07-2026 - 18:34 30.1°C / 40%
h1-hermonville 31-07-2026 - 18:34 27.1°C / 44.5%
h3-hermonville 31-07-2026 - 18:30 27.4°C / 44%
h4-hermonville 31-07-2026 - 18:28 27.1°C / 44.5%
h2-hermonville 31-07-2026 - 18:24 32.2°C / 36.5%
h1-hermonville 31-07-2026 - 18:24 27.3°C / 44%
h3-hermonville 31-07-2026 - 18:20 27.3°C / 43.5%
h4-hermonville 31-07-2026 - 18:18 27.2°C / 44.5%
h2-hermonville 31-07-2026 - 18:14 32.6°C / 34.5%
h1-hermonville 31-07-2026 - 18:14 27.2°C / 44.5%
h3-hermonville 31-07-2026 - 18:10 27.4°C / 44%
h4-hermonville 31-07-2026 - 18:08 27°C / 44.5%
h2-hermonville 31-07-2026 - 18:04 33.3°C / 35%
h1-hermonville 31-07-2026 - 18:04 27.2°C / 44%
h3-hermonville 31-07-2026 - 18:00 27.4°C / 43.5%
h4-hermonville 31-07-2026 - 17:58 27°C / 43.5%
h2-hermonville 31-07-2026 - 17:54 33.5°C / 33.5%
h1-hermonville 31-07-2026 - 17:54 26.9°C / 45%
h3-hermonville 31-07-2026 - 17:50 27.2°C / 44%
h4-hermonville 31-07-2026 - 17:48 26.7°C / 45%
h2-hermonville 31-07-2026 - 17:44 32.8°C / 34%
h1-hermonville 31-07-2026 - 17:44 26.9°C / 44%
h3-hermonville 31-07-2026 - 17:40 27.1°C / 43%
h4-hermonville 31-07-2026 - 17:38 26.6°C / 44.5%
h2-hermonville 31-07-2026 - 17:34 30.9°C / 37%
h1-hermonville 31-07-2026 - 17:34 26.7°C / 44.5%
h3-hermonville 31-07-2026 - 17:30 27°C / 43.5%
h4-hermonville 31-07-2026 - 17:28 26.6°C / 44%
h2-hermonville 31-07-2026 - 17:24 31.1°C / 38%
h1-hermonville 31-07-2026 - 17:24 26.7°C / 43.5%
h3-hermonville 31-07-2026 - 17:20 27°C / 43.5%
h4-hermonville 31-07-2026 - 17:18 26.6°C / 45.5%
h2-hermonville 31-07-2026 - 17:14 31.5°C / 37.5%
h1-hermonville 31-07-2026 - 17:14 26.6°C / 46%
h3-hermonville 31-07-2026 - 17:10 27°C / 45%
h2-hermonville 31-07-2026 - 17:04 32.1°C / 36.5%
h1-hermonville 31-07-2026 - 17:04 26.5°C / 45%
h3-hermonville 31-07-2026 - 17:00 27°C / 44%
h4-hermonville 31-07-2026 - 16:58 26.6°C / 45.5%
h2-hermonville 31-07-2026 - 16:54 32°C / 37.5%
h1-hermonville 31-07-2026 - 16:54 26.6°C / 46.5%
h3-hermonville 31-07-2026 - 16:50 27.1°C / 45%
h4-hermonville 31-07-2026 - 16:48 26.8°C / 45.5%
h2-hermonville 31-07-2026 - 16:44 31.7°C / 38.5%
h1-hermonville 31-07-2026 - 16:44 26.6°C / 47%
h3-hermonville 31-07-2026 - 16:40 27.1°C / 46.5%
h4-hermonville 31-07-2026 - 16:38 26.8°C / 46.5%
h2-hermonville 31-07-2026 - 16:34 29.1°C / 41%
h1-hermonville 31-07-2026 - 16:34 26.5°C / 47.5%
h3-hermonville 31-07-2026 - 16:30 26.9°C / 46%
h4-hermonville 31-07-2026 - 16:28 26.9°C / 47.5%
h2-hermonville 31-07-2026 - 16:24 29.9°C / 44.5%
h1-hermonville 31-07-2026 - 16:24 26.4°C / 49.5%
h3-hermonville 31-07-2026 - 16:20 26.7°C / 49.5%
h2-hermonville 31-07-2026 - 16:14 28.3°C / 47%
h1-hermonville 31-07-2026 - 16:14 26.3°C / 52%
h3-hermonville 31-07-2026 - 16:10 26.4°C / 50.5%
h4-hermonville 31-07-2026 - 16:08 26.6°C / 49.5%
h2-hermonville 31-07-2026 - 16:04 28.1°C / 47.5%
h1-hermonville 31-07-2026 - 16:04 26.2°C / 51%
h3-hermonville 31-07-2026 - 16:00 26.2°C / 51%
h4-hermonville 31-07-2026 - 15:58 26.4°C / 49.5%
h2-hermonville 31-07-2026 - 15:54 27.1°C / 50%
h1-hermonville 31-07-2026 - 15:54 26°C / 51%
h3-hermonville 31-07-2026 - 15:50 25.9°C / 51%
h4-hermonville 31-07-2026 - 15:48 26.4°C / 49.5%
h2-hermonville 31-07-2026 - 15:44 26.8°C / 50.5%
h1-hermonville 31-07-2026 - 15:44 26°C / 51%
h3-hermonville 31-07-2026 - 15:40 25.8°C / 51.5%
h4-hermonville 31-07-2026 - 15:38 26.3°C / 49.5%
h2-hermonville 31-07-2026 - 15:34 26.8°C / 50.5%
h1-hermonville 31-07-2026 - 15:34 25.8°C / 52%
h3-hermonville 31-07-2026 - 15:30 25.7°C / 51.5%
h4-hermonville 31-07-2026 - 15:28 26.3°C / 50.5%
h2-hermonville 31-07-2026 - 15:24 26.6°C / 51.5%
h1-hermonville 31-07-2026 - 15:24 25.7°C / 52.5%
h3-hermonville 31-07-2026 - 15:20 25.6°C / 52%
h4-hermonville 31-07-2026 - 15:18 26.4°C / 49.5%
h2-hermonville 31-07-2026 - 15:14 26.5°C / 50.5%
h1-hermonville 31-07-2026 - 15:14 25.7°C / 52%
h3-hermonville 31-07-2026 - 15:10 25.6°C / 51.5%
h4-hermonville 31-07-2026 - 15:08 26.3°C / 48.5%
h2-hermonville 31-07-2026 - 15:04 26.4°C / 50%
h1-hermonville 31-07-2026 - 15:04 25.6°C / 52%
h3-hermonville 31-07-2026 - 15:00 25.7°C / 51%
h4-hermonville 31-07-2026 - 14:58 26.6°C / 48.5%
h2-hermonville 31-07-2026 - 14:54 26.3°C / 50.5%
h1-hermonville 31-07-2026 - 14:54 25.7°C / 51.5%
h3-hermonville 31-07-2026 - 14:50 25.7°C / 51%
h4-hermonville 31-07-2026 - 14:48 26.8°C / 48%
h2-hermonville 31-07-2026 - 14:44 26.6°C / 50%
h1-hermonville 31-07-2026 - 14:44 25.9°C / 51%
h3-hermonville 31-07-2026 - 14:40 25.9°C / 51%
h4-hermonville 31-07-2026 - 14:38 26.9°C / 47.5%
h2-hermonville 31-07-2026 - 14:34 26.5°C / 50%
h1-hermonville 31-07-2026 - 14:34 26°C / 51.5%
h3-hermonville 31-07-2026 - 14:30 26°C / 51%
h2-hermonville 31-07-2026 - 14:24 26.4°C / 50.5%
h1-hermonville 31-07-2026 - 14:24 25.8°C / 52.5%
h3-hermonville 31-07-2026 - 14:20 26°C / 51.5%
h4-hermonville 31-07-2026 - 14:18 27.1°C / 47.5%
h2-hermonville 31-07-2026 - 14:14 26.7°C / 49.5%
h1-hermonville 31-07-2026 - 14:14 25.8°C / 52.5%
h3-hermonville 31-07-2026 - 14:10 26°C / 50.5%
h4-hermonville 31-07-2026 - 14:08 27.2°C / 47.5%
h2-hermonville 31-07-2026 - 14:04 26.7°C / 49.5%
h1-hermonville 31-07-2026 - 14:04 25.9°C / 53%
h3-hermonville 31-07-2026 - 14:00 26.2°C / 52.5%
h4-hermonville 31-07-2026 - 13:58 27.3°C / 49%
h2-hermonville 31-07-2026 - 13:54 26.8°C / 51.5%
h1-hermonville 31-07-2026 - 13:54 25.9°C / 55%
h3-hermonville 31-07-2026 - 13:50 26.3°C / 53%
h4-hermonville 31-07-2026 - 13:48 27.4°C / 50%
h2-hermonville 31-07-2026 - 13:44 27.1°C / 53%
h1-hermonville 31-07-2026 - 13:44 25.8°C / 56%
h3-hermonville 31-07-2026 - 13:40 26.3°C / 54.5%
h4-hermonville 31-07-2026 - 13:38 27.4°C / 51%
h2-hermonville 31-07-2026 - 13:34 26.5°C / 56%
h1-hermonville 31-07-2026 - 13:34 25.5°C / 57.5%
h3-hermonville 31-07-2026 - 13:30 25.7°C / 56%
h4-hermonville 31-07-2026 - 13:28 27.2°C / 51%
h2-hermonville 31-07-2026 - 13:24 26.5°C / 54.5%
h1-hermonville 31-07-2026 - 13:24 25.3°C / 58%
h3-hermonville 31-07-2026 - 13:20 25.9°C / 55.5%
h4-hermonville 31-07-2026 - 13:18 27.4°C / 50.5%
h2-hermonville 31-07-2026 - 13:14 26.1°C / 57%
h1-hermonville 31-07-2026 - 13:14 24.7°C / 59.5%
h3-hermonville 31-07-2026 - 13:10 25.3°C / 57%
h4-hermonville 31-07-2026 - 13:08 27.5°C / 50%
h2-hermonville 31-07-2026 - 13:04 25.7°C / 57%
h3-hermonville 31-07-2026 - 13:00 25.2°C / 58%
h4-hermonville 31-07-2026 - 12:58 27.4°C / 50.5%
h2-hermonville 31-07-2026 - 12:54 25.2°C / 58.5%
h1-hermonville 31-07-2026 - 12:54 24.3°C / 61.5%
h3-hermonville 31-07-2026 - 12:50 24.9°C / 59.5%
h4-hermonville 31-07-2026 - 12:48 27.1°C / 51.5%
h2-hermonville 31-07-2026 - 12:44 25°C / 60%
h1-hermonville 31-07-2026 - 12:44 24.4°C / 61.5%
h3-hermonville 31-07-2026 - 12:40 24.9°C / 59.5%
h4-hermonville 31-07-2026 - 12:38 27.2°C / 51%
h2-hermonville 31-07-2026 - 12:34 24.8°C / 60%
h1-hermonville 31-07-2026 - 12:34 24.3°C / 61.5%
h3-hermonville 31-07-2026 - 12:30 24.4°C / 60.5%
h4-hermonville 31-07-2026 - 12:28 27.7°C / 49.5%
h2-hermonville 31-07-2026 - 12:24 24.5°C / 60.5%
h1-hermonville 31-07-2026 - 12:24 23.9°C / 62.5%
h3-hermonville 31-07-2026 - 12:20 24.5°C / 59.5%
h4-hermonville 31-07-2026 - 12:18 29.2°C / 46.5%
h2-hermonville 31-07-2026 - 12:14 24.5°C / 61.5%
h1-hermonville 31-07-2026 - 12:14 23.6°C / 64%
h3-hermonville 31-07-2026 - 12:10 24°C / 61.5%
h4-hermonville 31-07-2026 - 12:08 30.5°C / 43.5%
h2-hermonville 31-07-2026 - 12:04 23.7°C / 63%
h1-hermonville 31-07-2026 - 12:04 23.2°C / 64.5%
h3-hermonville 31-07-2026 - 12:00 23.7°C / 61.5%
h4-hermonville 31-07-2026 - 11:58 32.4°C / 40%
h2-hermonville 31-07-2026 - 11:54 23.5°C / 62%
h1-hermonville 31-07-2026 - 11:54 23°C / 64.5%
h3-hermonville 31-07-2026 - 11:50 23.4°C / 63%
h2-hermonville 31-07-2026 - 11:44 23.3°C / 67%
h1-hermonville 31-07-2026 - 11:44 22.7°C / 67.5%
h3-hermonville 31-07-2026 - 11:40 22.9°C / 67%
h4-hermonville 31-07-2026 - 11:38 32.1°C / 41.5%
h1-hermonville 31-07-2026 - 11:34 22.3°C / 69.5%
h3-hermonville 31-07-2026 - 11:30 22.6°C / 68%
h4-hermonville 31-07-2026 - 11:28 32.1°C / 41.5%
h2-hermonville 31-07-2026 - 11:24 22.8°C / 68%
h1-hermonville 31-07-2026 - 11:24 22.2°C / 70%
h3-hermonville 31-07-2026 - 11:20 22.4°C / 69%
h4-hermonville 31-07-2026 - 11:18 32.4°C / 42%
h2-hermonville 31-07-2026 - 11:14 21.9°C / 71%
h1-hermonville 31-07-2026 - 11:14 22°C / 70.5%
h3-hermonville 31-07-2026 - 11:10 22°C / 69.5%
h4-hermonville 31-07-2026 - 11:08 31.5°C / 44%
h2-hermonville 31-07-2026 - 11:04 21.7°C / 70.5%
h1-hermonville 31-07-2026 - 11:04 21.4°C / 71.5%
h3-hermonville 31-07-2026 - 11:00 21.6°C / 70%
h4-hermonville 31-07-2026 - 10:58 29.4°C / 49%
h2-hermonville 31-07-2026 - 10:54 21.4°C / 71%
h1-hermonville 31-07-2026 - 10:54 20.9°C / 73.5%
h3-hermonville 31-07-2026 - 10:50 21.3°C / 71.5%
h4-hermonville 31-07-2026 - 10:48 26.6°C / 55.5%
h2-hermonville 31-07-2026 - 10:44 21.6°C / 71.5%
h1-hermonville 31-07-2026 - 10:44 20.4°C / 75.5%
h4-hermonville 31-07-2026 - 10:38 24.1°C / 62.5%
h2-hermonville 31-07-2026 - 10:34 21.4°C / 71%
h1-hermonville 31-07-2026 - 10:34 20.2°C / 75.5%
h3-hermonville 31-07-2026 - 10:30 20.9°C / 72%
h4-hermonville 31-07-2026 - 10:28 22.3°C / 66%
h2-hermonville 31-07-2026 - 10:24 22°C / 69%
h1-hermonville 31-07-2026 - 10:24 20°C / 76%
h3-hermonville 31-07-2026 - 10:20 21°C / 71.5%
h4-hermonville 31-07-2026 - 10:18 22.5°C / 65.5%
h2-hermonville 31-07-2026 - 10:14 21.7°C / 70%
h1-hermonville 31-07-2026 - 10:14 20.2°C / 75.5%
h3-hermonville 31-07-2026 - 10:10 21.3°C / 70.5%
h4-hermonville 31-07-2026 - 10:08 22.6°C / 65%
h2-hermonville 31-07-2026 - 10:04 21.7°C / 69.5%
h1-hermonville 31-07-2026 - 10:04 20.2°C / 75%
h3-hermonville 31-07-2026 - 10:00 21.4°C / 70.5%
h4-hermonville 31-07-2026 - 09:58 22.3°C / 66%
h2-hermonville 31-07-2026 - 09:54 21.3°C / 71%
h3-hermonville 31-07-2026 - 09:50 21.2°C / 71%
h4-hermonville 31-07-2026 - 09:48 22°C / 66.5%
h2-hermonville 31-07-2026 - 09:44 21.3°C / 71%
h1-hermonville 31-07-2026 - 09:44 20.2°C / 75%
h3-hermonville 31-07-2026 - 09:40 21°C / 71.5%
h4-hermonville 31-07-2026 - 09:38 22°C / 67%
h2-hermonville 31-07-2026 - 09:34 21°C / 71.5%
h1-hermonville 31-07-2026 - 09:34 19.9°C / 75.5%
h3-hermonville 31-07-2026 - 09:30 20.8°C / 72%
h4-hermonville 31-07-2026 - 09:28 22°C / 66%
h2-hermonville 31-07-2026 - 09:24 20.6°C / 73%
h1-hermonville 31-07-2026 - 09:24 19.9°C / 76%
h3-hermonville 31-07-2026 - 09:20 20.6°C / 72%
h4-hermonville 31-07-2026 - 09:18 21.9°C / 66%
h1-hermonville 31-07-2026 - 09:14 19.8°C / 76%
h3-hermonville 31-07-2026 - 09:10 20.5°C / 72%
h4-hermonville 31-07-2026 - 09:08 21.9°C / 66%
h2-hermonville 31-07-2026 - 09:04 20.4°C / 73%
h1-hermonville 31-07-2026 - 09:04 19.5°C / 76.5%
h3-hermonville 31-07-2026 - 09:00 20.6°C / 72%
h4-hermonville 31-07-2026 - 08:58 21.8°C / 66%
h2-hermonville 31-07-2026 - 08:54 20.8°C / 71.5%
h1-hermonville 31-07-2026 - 08:54 19.6°C / 75.5%
h3-hermonville 31-07-2026 - 08:50 20.7°C / 70.5%
h4-hermonville 31-07-2026 - 08:48 21.6°C / 66.5%
h2-hermonville 31-07-2026 - 08:44 20.2°C / 73.5%
h1-hermonville 31-07-2026 - 08:44 19.8°C / 74.5%
h3-hermonville 31-07-2026 - 08:40 20.5°C / 71%
h4-hermonville 31-07-2026 - 08:38 21.7°C / 66%
h2-hermonville 31-07-2026 - 08:34 20.4°C / 72.5%
h1-hermonville 31-07-2026 - 08:34 19.9°C / 74%
h3-hermonville 31-07-2026 - 08:30 20.3°C / 72%
h4-hermonville 31-07-2026 - 08:28 21.5°C / 67%
h2-hermonville 31-07-2026 - 08:24 20.1°C / 73.5%
h1-hermonville 31-07-2026 - 08:24 20.2°C / 73%
h3-hermonville 31-07-2026 - 08:20 20.1°C / 72.5%
h4-hermonville 31-07-2026 - 08:18 21.5°C / 67.5%
h2-hermonville 31-07-2026 - 08:14 19.9°C / 74.5%
h1-hermonville 31-07-2026 - 08:14 20.1°C / 74%
h3-hermonville 31-07-2026 - 08:10 20.2°C / 72.5%
h4-hermonville 31-07-2026 - 08:08 21.4°C / 67.5%
h2-hermonville 31-07-2026 - 08:04 19.7°C / 75%
h1-hermonville 31-07-2026 - 08:04 20°C / 73.5%
h3-hermonville 31-07-2026 - 08:00 20.4°C / 72%
h2-hermonville 31-07-2026 - 07:44 19.6°C / 75.5%
h3-hermonville 31-07-2026 - 07:40 20.4°C / 72%
h4-hermonville 31-07-2026 - 07:38 21.4°C / 67.5%
h2-hermonville 31-07-2026 - 07:34 19.5°C / 76%
h3-hermonville 31-07-2026 - 07:30 20°C / 73%
h4-hermonville 31-07-2026 - 07:28 21.3°C / 67.5%
h2-hermonville 31-07-2026 - 07:24 19.6°C / 75%
h1-hermonville 31-07-2026 - 07:24 20.1°C / 73.5%
h3-hermonville 31-07-2026 - 07:20 20.2°C / 72%
h4-hermonville 31-07-2026 - 07:18 21°C / 68.5%
h2-hermonville 31-07-2026 - 07:14 19.7°C / 74.5%
h1-hermonville 31-07-2026 - 07:14 19.6°C / 75%
h3-hermonville 31-07-2026 - 07:10 20.1°C / 72%
h4-hermonville 31-07-2026 - 07:08 20.9°C / 68.5%
h2-hermonville 31-07-2026 - 07:04 19.9°C / 74%
h1-hermonville 31-07-2026 - 07:04 19.5°C / 75%
h4-hermonville 31-07-2026 - 06:58 21.1°C / 68.5%
h2-hermonville 31-07-2026 - 06:54 19.8°C / 74%
h1-hermonville 31-07-2026 - 06:54 19.6°C / 75.5%
h4-hermonville 31-07-2026 - 06:48 20.9°C / 69.5%
h2-hermonville 31-07-2026 - 06:44 20°C / 73.5%
h1-hermonville 31-07-2026 - 06:44 19.3°C / 76%
h1-hermonville 31-07-2026 - 06:34 19.8°C / 75.5%
h3-hermonville 31-07-2026 - 06:30 19.8°C / 74%
h4-hermonville 31-07-2026 - 06:28 20.7°C / 70.5%
h2-hermonville 31-07-2026 - 06:24 20.1°C / 74.5%
h1-hermonville 31-07-2026 - 06:24 19°C / 78.5%
h3-hermonville 31-07-2026 - 06:20 20.6°C / 71.5%
h4-hermonville 31-07-2026 - 06:18 20.6°C / 70.5%
h2-hermonville 31-07-2026 - 06:14 20.1°C / 74%
h1-hermonville 31-07-2026 - 06:14 19°C / 78%
h3-hermonville 31-07-2026 - 06:10 20.5°C / 72%
h4-hermonville 31-07-2026 - 06:08 21°C / 69.5%
h2-hermonville 31-07-2026 - 06:04 20.4°C / 74%
h1-hermonville 31-07-2026 - 06:04 19.2°C / 78%
h4-hermonville 31-07-2026 - 05:58 21.2°C / 69%
h2-hermonville 31-07-2026 - 05:54 20.7°C / 72%
h1-hermonville 31-07-2026 - 05:54 19.5°C / 76.5%
h3-hermonville 31-07-2026 - 05:50 20.6°C / 71.5%
h4-hermonville 31-07-2026 - 05:48 21.2°C / 68.5%
h2-hermonville 31-07-2026 - 05:44 20.7°C / 71.5%
h1-hermonville 31-07-2026 - 05:44 19.5°C / 76%
h3-hermonville 31-07-2026 - 05:40 20.8°C / 70.5%
h4-hermonville 31-07-2026 - 05:38 21.4°C / 67.5%
h2-hermonville 31-07-2026 - 05:34 20.8°C / 71.5%
h1-hermonville 31-07-2026 - 05:34 19.4°C / 75.5%
h3-hermonville 31-07-2026 - 05:30 20.9°C / 71%
h4-hermonville 31-07-2026 - 05:28 21.3°C / 68%
h2-hermonville 31-07-2026 - 05:24 20.7°C / 71.5%
h1-hermonville 31-07-2026 - 05:24 19.6°C / 75.5%
h3-hermonville 31-07-2026 - 05:20 20.7°C / 71.5%
h4-hermonville 31-07-2026 - 05:18 21.4°C / 68.5%
h2-hermonville 31-07-2026 - 05:14 21°C / 71%
h1-hermonville 31-07-2026 - 05:14 19.6°C / 75.5%
h3-hermonville 31-07-2026 - 05:10 20.8°C / 71%
h4-hermonville 31-07-2026 - 05:08 21.3°C / 69%
h2-hermonville 31-07-2026 - 05:04 20.5°C / 73%
h1-hermonville 31-07-2026 - 05:04 20.1°C / 75%
h3-hermonville 31-07-2026 - 05:00 20.7°C / 73%
h4-hermonville 31-07-2026 - 04:58 21.4°C / 69.5%
h2-hermonville 31-07-2026 - 04:54 20.7°C / 73.5%
h1-hermonville 31-07-2026 - 04:54 20.2°C / 75.5%
h3-hermonville 31-07-2026 - 04:50 20.6°C / 73%
h4-hermonville 31-07-2026 - 04:48 21.4°C / 70%
h2-hermonville 31-07-2026 - 04:44 20.8°C / 73.5%
h1-hermonville 31-07-2026 - 04:44 20.2°C / 75.5%
h3-hermonville 31-07-2026 - 04:40 20.7°C / 73.5%
h4-hermonville 31-07-2026 - 04:38 21.3°C / 70.5%
h2-hermonville 31-07-2026 - 04:34 20.9°C / 73.5%
h1-hermonville 31-07-2026 - 04:34 20.8°C / 74.5%
h3-hermonville 31-07-2026 - 04:30 20.7°C / 74%
h4-hermonville 31-07-2026 - 04:28 21.6°C / 70%
h2-hermonville 31-07-2026 - 04:24 21°C / 73.5%
h1-hermonville 31-07-2026 - 04:24 20.6°C / 75.5%
h3-hermonville 31-07-2026 - 04:20 20.9°C / 73%
h4-hermonville 31-07-2026 - 04:18 22.2°C / 67.5%
h2-hermonville 31-07-2026 - 04:14 21.4°C / 72%
h1-hermonville 31-07-2026 - 04:14 20.2°C / 76.5%
h3-hermonville 31-07-2026 - 04:10 21.4°C / 71.5%
h4-hermonville 31-07-2026 - 04:08 22.2°C / 68.5%
h2-hermonville 31-07-2026 - 04:04 22°C / 70%
h1-hermonville 31-07-2026 - 04:04 19.9°C / 77%
h3-hermonville 31-07-2026 - 04:00 21.3°C / 71.5%
h4-hermonville 31-07-2026 - 03:58 22°C / 68.5%
h2-hermonville 31-07-2026 - 03:54 22.1°C / 70.5%
h1-hermonville 31-07-2026 - 03:54 19.9°C / 77%
h3-hermonville 31-07-2026 - 03:50 21.4°C / 72%
h4-hermonville 31-07-2026 - 03:48 22.2°C / 68.5%
h2-hermonville 31-07-2026 - 03:44 21.9°C / 70.5%
h1-hermonville 31-07-2026 - 03:44 20°C / 77%
h3-hermonville 31-07-2026 - 03:40 21.5°C / 71.5%
h4-hermonville 31-07-2026 - 03:38 22.2°C / 69%
h2-hermonville 31-07-2026 - 03:34 21.9°C / 72.5%
h1-hermonville 31-07-2026 - 03:34 20.2°C / 77.5%
h3-hermonville 31-07-2026 - 03:30 21.6°C / 73.5%
h4-hermonville 31-07-2026 - 03:28 22.4°C / 70.5%
h2-hermonville 31-07-2026 - 03:24 21.9°C / 74.5%
h1-hermonville 31-07-2026 - 03:24 20.3°C / 79.5%
h3-hermonville 31-07-2026 - 03:20 21.6°C / 75%
h4-hermonville 31-07-2026 - 03:18 22.2°C / 72%
h2-hermonville 31-07-2026 - 03:14 21.8°C / 76%
h1-hermonville 31-07-2026 - 03:14 20.5°C / 80%
h3-hermonville 31-07-2026 - 03:10 21.5°C / 76.5%
h4-hermonville 31-07-2026 - 03:08 21.9°C / 74%
h2-hermonville 31-07-2026 - 03:04 21.5°C / 78.5%
h1-hermonville 31-07-2026 - 03:04 20.5°C / 81%
h3-hermonville 31-07-2026 - 03:00 21.4°C / 77.5%
h4-hermonville 31-07-2026 - 02:58 21.7°C / 75.5%
h2-hermonville 31-07-2026 - 02:54 21.2°C / 79%
h1-hermonville 31-07-2026 - 02:54 20.6°C / 81.5%
h3-hermonville 31-07-2026 - 02:50 21.5°C / 77%
h4-hermonville 31-07-2026 - 02:48 21.4°C / 76.5%
h2-hermonville 31-07-2026 - 02:44 21.5°C / 77.5%
h1-hermonville 31-07-2026 - 02:44 21°C / 78.5%
h3-hermonville 31-07-2026 - 02:40 20.9°C / 79%
h4-hermonville 31-07-2026 - 02:38 22.2°C / 73%
h2-hermonville 31-07-2026 - 02:34 21.2°C / 78.5%
h1-hermonville 31-07-2026 - 02:34 21.2°C / 78.5%
h3-hermonville 31-07-2026 - 02:30 21.5°C / 76.5%
h4-hermonville 31-07-2026 - 02:28 22.4°C / 72.5%
h2-hermonville 31-07-2026 - 02:24 21.8°C / 77%
h1-hermonville 31-07-2026 - 02:24 21.2°C / 79.5%
h3-hermonville 31-07-2026 - 02:20 22.1°C / 75%
h4-hermonville 31-07-2026 - 02:18 22.7°C / 71.5%
h2-hermonville 31-07-2026 - 02:14 21.7°C / 77.5%
h1-hermonville 31-07-2026 - 02:14 21.2°C / 79.5%
h3-hermonville 31-07-2026 - 02:10 22°C / 75%
h4-hermonville 31-07-2026 - 02:08 22.5°C / 72%
h2-hermonville 31-07-2026 - 02:04 21.5°C / 77.5%
h1-hermonville 31-07-2026 - 02:04 21.4°C / 77.5%
h3-hermonville 31-07-2026 - 02:00 22°C / 75%
h4-hermonville 31-07-2026 - 01:58 22.7°C / 71.5%
h2-hermonville 31-07-2026 - 01:54 21.4°C / 78%
h1-hermonville 31-07-2026 - 01:54 21.8°C / 76%
h3-hermonville 31-07-2026 - 01:50 21.4°C / 77%
h4-hermonville 31-07-2026 - 01:48 22.9°C / 70%
h2-hermonville 31-07-2026 - 01:44 21.5°C / 77.5%
h1-hermonville 31-07-2026 - 01:44 21.6°C / 76.5%
h3-hermonville 31-07-2026 - 01:40 21.8°C / 76%
h4-hermonville 31-07-2026 - 01:38 22.9°C / 70.5%
h2-hermonville 31-07-2026 - 01:34 21.7°C / 77.5%
h1-hermonville 31-07-2026 - 01:34 22°C / 75.5%
h3-hermonville 31-07-2026 - 01:30 21.6°C / 76.5%
h4-hermonville 31-07-2026 - 01:28 23°C / 70%
h2-hermonville 31-07-2026 - 01:24 21.5°C / 78%
h1-hermonville 31-07-2026 - 01:24 22.1°C / 75%
h3-hermonville 31-07-2026 - 01:20 22.2°C / 74.5%
h4-hermonville 31-07-2026 - 01:18 22.6°C / 72.5%
h2-hermonville 31-07-2026 - 01:14 21.5°C / 78%
h1-hermonville 31-07-2026 - 01:14 22°C / 75.5%
h3-hermonville 31-07-2026 - 01:10 22°C / 76%
h4-hermonville 31-07-2026 - 01:08 23°C / 71%
h2-hermonville 31-07-2026 - 01:04 21.8°C / 78%
h1-hermonville 31-07-2026 - 01:04 21.9°C / 77%
h3-hermonville 31-07-2026 - 01:00 22.1°C / 75.5%
h4-hermonville 31-07-2026 - 00:58 22.7°C / 72%
h2-hermonville 31-07-2026 - 00:54 21.8°C / 78%
h1-hermonville 31-07-2026 - 00:54 22.1°C / 76%
h3-hermonville 31-07-2026 - 00:50 22.3°C / 74.5%
h4-hermonville 31-07-2026 - 00:48 23°C / 71%
h2-hermonville 31-07-2026 - 00:44 21.8°C / 78%
h1-hermonville 31-07-2026 - 00:44 22.3°C / 75.5%
h3-hermonville 31-07-2026 - 00:40 22.6°C / 74.5%
h4-hermonville 31-07-2026 - 00:38 23.2°C / 71%
h2-hermonville 31-07-2026 - 00:34 22°C / 77%
h1-hermonville 31-07-2026 - 00:34 22.4°C / 75%
h3-hermonville 31-07-2026 - 00:30 22.8°C / 73.5%
h2-hermonville 31-07-2026 - 00:24 22.2°C / 76.5%
h1-hermonville 31-07-2026 - 00:24 22.7°C / 74.5%
h3-hermonville 31-07-2026 - 00:20 22.6°C / 74.5%
h4-hermonville 31-07-2026 - 00:18 23.5°C / 70%
h2-hermonville 31-07-2026 - 00:14 22.2°C / 76.5%
h1-hermonville 31-07-2026 - 00:14 22.8°C / 73.5%
h3-hermonville 31-07-2026 - 00:10 22.7°C / 74%
h4-hermonville 31-07-2026 - 00:08 23.5°C / 70%
h2-hermonville 31-07-2026 - 00:04 22.6°C / 75.5%
h1-hermonville 31-07-2026 - 00:04 22.7°C / 74%
h3-hermonville 31-07-2026 - 00:00 22.6°C / 74%